createdAt,value
2018-12-17T00:03:11.689Z,-1.50
2018-12-17T00:05:41.887Z,-1.40
2018-12-17T00:08:11.094Z,-1.30
2018-12-17T01:02:46.942Z,-1.40
2018-12-17T01:05:19.450Z,-1.30
2018-12-17T01:07:59.042Z,-1.30
2018-12-17T02:02:37.279Z,-1.40
2018-12-17T02:05:06.349Z,-1.40
2018-12-17T02:07:35.315Z,-1.20
2018-12-17T02:10:04.357Z,-1.10
2018-12-17T03:02:40.897Z,-1.40
2018-12-17T03:05:09.898Z,-1.30
2018-12-17T03:07:43.065Z,-1.20
2018-12-17T04:02:48.133Z,-1.30
2018-12-17T04:05:17.127Z,-1.30
2018-12-17T04:07:46.108Z,-1.20
2018-12-17T05:02:45.571Z,-1.30
2018-12-17T05:05:14.610Z,-1.30
2018-12-17T05:07:43.587Z,-1.10
2018-12-17T05:10:12.598Z,-1.00
2018-12-17T06:02:40.154Z,-1.30
2018-12-17T06:05:09.203Z,-1.20
2018-12-17T06:07:38.286Z,-1.10
2018-12-17T07:02:39.026Z,-1.20
2018-12-17T07:05:08.079Z,-1.10
2018-12-17T07:07:37.076Z,-1.00
2018-12-17T08:02:37.062Z,-0.70
2018-12-17T08:05:06.094Z,-0.60
2018-12-17T08:07:35.124Z,-0.50
2018-12-17T08:10:04.348Z,-0.20
2018-12-17T09:02:38.733Z,-0.10
2018-12-17T09:05:07.829Z,-0.10
2018-12-17T09:07:36.797Z,0.10
2018-12-17T09:10:07.394Z,0.30
2018-12-17T10:02:39.062Z,0.30
2018-12-17T10:05:08.094Z,0.20
2018-12-17T10:07:37.105Z,0.40
2018-12-17T11:02:49.402Z,0.30
2018-12-17T11:05:18.774Z,0.30
2018-12-17T11:07:47.804Z,0.50
2018-12-17T12:02:37.053Z,0.20
2018-12-17T12:05:06.077Z,0.10
2018-12-17T12:07:35.111Z,0.20
2018-12-17T12:10:04.202Z,0.40
2018-12-17T13:02:36.981Z,-0.10
2018-12-17T13:05:06.134Z,-0.10
2018-12-17T13:07:35.206Z,0.00
2018-12-17T13:10:05.171Z,0.10
2018-12-17T14:02:40.481Z,-0.50
2018-12-17T14:05:09.536Z,-0.50
2018-12-17T14:07:38.591Z,-0.40
2018-12-17T15:03:16.703Z,-0.80
2018-12-17T15:05:45.927Z,-0.80
2018-12-17T15:08:14.954Z,-0.70
2018-12-17T15:10:44.218Z,-0.60
2018-12-17T16:02:40.548Z,-1.10
2018-12-17T16:05:09.683Z,-1.00
2018-12-17T16:07:38.808Z,-0.90
2018-12-17T17:02:40.315Z,-1.10
2018-12-17T17:05:09.331Z,-1.10
2018-12-17T17:07:38.373Z,-1.00
2018-12-17T18:02:37.452Z,-1.20
2018-12-17T18:05:06.711Z,-1.20
2018-12-17T18:07:35.845Z,-1.10
2018-12-17T19:02:37.555Z,-1.30
2018-12-17T19:05:06.615Z,-1.20
2018-12-17T19:07:35.686Z,-1.10
2018-12-17T19:10:05.878Z,-1.00
2018-12-17T20:02:46.772Z,-1.30
2018-12-17T20:05:11.383Z,-1.20
2018-12-17T20:07:40.433Z,-1.10
2018-12-17T21:02:43.950Z,-1.30
2018-12-17T21:05:13.021Z,-1.30
2018-12-17T21:07:42.036Z,-1.20
2018-12-17T22:03:17.691Z,-1.40
2018-12-17T22:05:46.701Z,-1.30
2018-12-17T22:08:15.749Z,-1.20
2018-12-17T22:10:44.845Z,-1.00
2018-12-17T23:02:37.368Z,-1.30
2018-12-17T23:05:06.439Z,-1.20
2018-12-17T23:07:35.515Z,-1.10
